createdAt,value
2023-05-22T00:03:13.690Z,3.00
2023-05-22T00:06:58.668Z,3.50
2023-05-22T00:10:43.622Z,3.80
2023-05-22T00:14:29.196Z,5.80
2023-05-22T00:18:14.425Z,3.90
2023-05-22T00:21:59.151Z,4.20
2023-05-22T00:25:45.183Z,3.50
2023-05-22T00:29:29.655Z,8.00
2023-05-22T00:33:14.321Z,7.40
2023-05-22T00:37:05.463Z,4.60
2023-05-22T00:40:56.016Z,8.70
2023-05-22T00:44:47.926Z,3.80
2023-05-22T00:47:38.194Z,3.20
2023-05-22T00:50:26.264Z,5.40
2023-05-22T00:53:14.373Z,4.10
2023-05-22T00:56:02.226Z,2.90
2023-05-22T00:58:50.771Z,6.00
2023-05-22T01:01:42.451Z,8.20
2023-05-22T01:04:32.171Z,3.30
2023-05-22T01:07:21.118Z,4.60
2023-05-22T01:10:09.875Z,2.80
2023-05-22T01:13:06.746Z,3.50
2023-05-22T01:16:13.773Z,4.60
2023-05-22T01:19:12.095Z,4.70
2023-05-22T01:22:06.224Z,2.80
2023-05-22T01:25:11.401Z,5.10
2023-05-22T01:28:02.424Z,4.90
2023-05-22T01:31:10.680Z,3.90
2023-05-22T01:34:00.779Z,7.80
2023-05-22T01:36:48.308Z,4.80
2023-05-22T01:39:36.513Z,2.90
2023-05-22T01:42:24.076Z,3.20
2023-05-22T01:45:11.918Z,5.10
2023-05-22T01:48:00.451Z,3.70
2023-05-22T01:50:48.406Z,5.50
2023-05-22T01:53:41.669Z,4.90
2023-05-22T01:59:54.082Z,5.10
2023-05-22T02:02:44.768Z,4.80
2023-05-22T02:05:33.447Z,5.00
2023-05-22T02:08:21.367Z,5.10
2023-05-22T02:11:10.065Z,6.30
2023-05-22T02:13:58.061Z,3.30
2023-05-22T02:16:47.351Z,5.50
2023-05-22T02:19:35.656Z,3.70
2023-05-22T02:22:23.739Z,6.20
2023-05-22T02:25:16.214Z,4.00
2023-05-22T02:28:04.827Z,5.20
2023-05-22T02:30:52.805Z,4.20
2023-05-22T02:33:40.817Z,5.50
2023-05-22T02:36:30.377Z,3.30
2023-05-22T02:39:18.951Z,7.00
2023-05-22T02:42:07.498Z,6.20
2023-05-22T02:44:55.633Z,4.80
2023-05-22T02:47:43.734Z,5.00
2023-05-22T02:50:33.603Z,5.70
2023-05-22T02:53:21.479Z,3.70
2023-05-22T02:56:12.424Z,3.80
2023-05-22T02:59:00.439Z,3.70
2023-05-22T03:01:48.587Z,4.90
2023-05-22T03:04:38.019Z,4.10
2023-05-22T03:07:29.023Z,5.60
2023-05-22T03:10:16.815Z,2.60
2023-05-22T03:13:04.828Z,4.70
2023-05-22T03:15:53.091Z,10.00
2023-05-22T03:18:41.530Z,6.20
2023-05-22T03:21:29.594Z,4.90
2023-05-22T03:24:17.566Z,5.00
2023-05-22T03:27:05.560Z,6.60
2023-05-22T03:30:03.614Z,4.40
2023-05-22T03:32:52.685Z,6.20
2023-05-22T03:35:43.353Z,5.90
2023-05-22T03:38:31.777Z,6.40
2023-05-22T03:41:19.655Z,5.40
2023-05-22T03:44:07.872Z,3.50
2023-05-22T03:46:56.159Z,4.60
2023-05-22T03:49:44.197Z,4.70
2023-05-22T03:52:32.237Z,3.80
2023-05-22T03:55:20.140Z,3.90
2023-05-22T03:58:10.413Z,4.60
2023-05-22T04:01:00.609Z,5.20
2023-05-22T04:03:50.536Z,6.60
2023-05-22T04:06:42.548Z,4.10
2023-05-22T04:09:30.855Z,3.10
2023-05-22T04:12:19.440Z,6.10
2023-05-22T04:15:08.696Z,4.80
2023-05-22T04:17:56.746Z,3.50
2023-05-22T04:20:44.753Z,5.80
2023-05-22T04:23:32.849Z,4.90
2023-05-22T04:26:20.888Z,7.80
2023-05-22T04:29:09.953Z,8.50
2023-05-22T04:31:59.683Z,4.50
2023-05-22T04:34:52.238Z,3.30
2023-05-22T04:37:41.850Z,4.40
2023-05-22T04:40:33.006Z,4.00
2023-05-22T04:43:23.019Z,5.00
2023-05-22T04:46:12.489Z,3.80
2023-05-22T04:49:01.563Z,4.80
2023-05-22T04:51:49.672Z,5.80
2023-05-22T04:54:39.033Z,5.50
2023-05-22T04:57:27.132Z,6.10
2023-05-22T05:00:16.678Z,3.90
2023-05-22T05:03:07.524Z,5.00
2023-05-22T05:05:56.385Z,3.60
2023-05-22T05:08:47.412Z,4.80
2023-05-22T05:11:35.824Z,5.60
2023-05-22T05:14:25.198Z,6.60
2023-05-22T05:17:13.416Z,4.10
2023-05-22T05:20:01.537Z,5.80
2023-05-22T05:22:56.129Z,2.70
2023-05-22T05:25:44.390Z,4.80
2023-05-22T05:28:33.210Z,6.10
2023-05-22T05:31:22.290Z,4.20
2023-05-22T05:34:19.702Z,7.10
2023-05-22T05:37:19.065Z,6.30
2023-05-22T05:40:09.340Z,3.00
2023-05-22T05:43:00.387Z,6.50
2023-05-22T05:45:49.489Z,7.80
2023-05-22T05:48:37.529Z,6.60
2023-05-22T05:51:26.901Z,7.70
2023-05-22T05:54:17.222Z,3.60
2023-05-22T05:57:06.757Z,13.00
2023-05-22T05:59:56.506Z,4.60
2023-05-22T06:03:03.160Z,4.40
2023-05-22T06:06:06.776Z,6.70
2023-05-22T06:09:15.988Z,5.50
2023-05-22T06:12:32.058Z,7.20
2023-05-22T06:15:20.743Z,6.50
2023-05-22T06:18:08.838Z,6.00
2023-05-22T06:20:58.749Z,4.10
2023-05-22T06:23:47.747Z,4.80
2023-05-22T06:26:36.270Z,4.70
2023-05-22T06:29:24.394Z,4.50
2023-05-22T06:32:13.689Z,6.60
2023-05-22T06:35:02.529Z,5.80
2023-05-22T06:37:52.653Z,6.80
2023-05-22T06:40:41.502Z,8.30
2023-05-22T06:43:37.894Z,7.80
2023-05-22T06:46:33.803Z,7.00
2023-05-22T06:49:24.622Z,9.90
2023-05-22T06:52:15.177Z,6.30
2023-05-22T06:55:06.279Z,5.00
2023-05-22T06:58:01.589Z,6.60
2023-05-22T07:00:49.706Z,7.20
2023-05-22T07:03:43.257Z,6.70
2023-05-22T07:06:54.717Z,7.60
2023-05-22T07:09:43.237Z,6.30
2023-05-22T07:12:31.820Z,6.10
2023-05-22T07:15:22.223Z,4.30
2023-05-22T07:18:14.750Z,5.20
2023-05-22T07:21:03.580Z,8.00
2023-05-22T07:23:52.263Z,5.00
2023-05-22T07:26:45.276Z,4.70
2023-05-22T07:29:33.469Z,8.60
2023-05-22T07:32:22.253Z,5.10
2023-05-22T07:35:14.864Z,5.80
2023-05-22T07:38:03.519Z,3.40
2023-05-22T07:40:52.079Z,5.90
2023-05-22T07:43:39.932Z,5.30
2023-05-22T07:46:28.868Z,5.40
2023-05-22T07:49:21.736Z,3.60
2023-05-22T07:52:11.560Z,5.10
2023-05-22T07:55:00.326Z,8.90
2023-05-22T07:57:48.920Z,6.10
2023-05-22T08:00:45.933Z,4.30
2023-05-22T08:03:38.556Z,5.50
2023-05-22T08:06:26.480Z,6.60
2023-05-22T08:09:14.482Z,3.50
2023-05-22T08:12:02.743Z,4.70
2023-05-22T08:14:50.802Z,3.90
2023-05-22T08:17:39.028Z,3.40
2023-05-22T08:20:27.567Z,4.20
2023-05-22T08:23:15.518Z,4.00
2023-05-22T08:26:04.376Z,4.60
2023-05-22T08:28:52.470Z,2.60
2023-05-22T08:31:41.117Z,5.20
2023-05-22T08:34:29.242Z,3.60
2023-05-22T08:37:17.376Z,2.70
2023-05-22T08:40:07.987Z,5.70
2023-05-22T08:42:57.159Z,3.30
2023-05-22T08:45:45.317Z,9.30
2023-05-22T08:48:33.566Z,4.30
2023-05-22T08:51:21.965Z,2.50
2023-05-22T08:54:09.987Z,7.20
2023-05-22T08:56:58.008Z,5.70
2023-05-22T08:59:46.599Z,4.00
2023-05-22T09:02:35.541Z,4.30
2023-05-22T09:05:26.390Z,4.20
2023-05-22T09:08:20.320Z,3.90
2023-05-22T09:11:10.536Z,4.30
2023-05-22T09:14:08.533Z,6.80
2023-05-22T09:16:56.888Z,3.70
2023-05-22T09:19:47.662Z,5.90
2023-05-22T09:22:39.628Z,3.40
2023-05-22T09:25:27.485Z,4.40
2023-05-22T09:28:15.736Z,3.80
2023-05-22T09:31:04.462Z,4.70
2023-05-22T09:33:52.342Z,8.20
2023-05-22T09:36:41.042Z,3.50
2023-05-22T09:39:40.937Z,4.60
2023-05-22T09:42:29.284Z,7.80
2023-05-22T09:45:19.509Z,3.20
2023-05-22T09:48:08.124Z,7.10
2023-05-22T09:50:56.308Z,5.00
2023-05-22T09:53:44.489Z,6.00
2023-05-22T09:56:39.000Z,6.50
2023-05-22T09:59:32.579Z,4.10
2023-05-22T10:02:24.997Z,5.20
2023-05-22T10:05:20.856Z,4.90
2023-05-22T10:08:11.764Z,5.10
2023-05-22T10:10:59.737Z,7.30
2023-05-22T10:13:48.425Z,6.60
2023-05-22T10:16:41.486Z,5.30
2023-05-22T10:19:32.191Z,4.80
2023-05-22T10:22:22.093Z,5.30
2023-05-22T10:25:11.174Z,5.70
2023-05-22T10:28:00.044Z,5.80
2023-05-22T10:30:58.488Z,4.90
2023-05-22T10:34:06.799Z,6.40
2023-05-22T10:37:13.080Z,6.50
2023-05-22T10:40:07.661Z,6.10
2023-05-22T10:43:03.532Z,7.30
2023-05-22T10:46:02.097Z,8.70
2023-05-22T10:48:53.775Z,5.00
2023-05-22T10:51:41.861Z,6.40
2023-05-22T10:54:43.178Z,6.60
2023-05-22T10:57:34.568Z,6.20
2023-05-22T11:00:22.709Z,9.10
2023-05-22T11:03:17.787Z,8.00
2023-05-22T11:06:07.427Z,5.70
2023-05-22T11:08:56.180Z,7.90
2023-05-22T11:11:44.647Z,5.90
2023-05-22T11:14:32.732Z,7.60
2023-05-22T11:17:49.691Z,4.70
2023-05-22T11:20:39.364Z,7.00
2023-05-22T11:23:27.717Z,6.50
2023-05-22T11:26:20.506Z,4.90
2023-05-22T11:30:20.163Z,5.30
2023-05-22T11:34:21.728Z,7.70
2023-05-22T11:38:19.397Z,6.00
2023-05-22T11:42:20.723Z,5.60
2023-05-22T11:46:18.198Z,7.30
2023-05-22T11:54:20.243Z,5.10
2023-05-22T11:58:22.098Z,6.50
2023-05-22T12:02:20.260Z,5.90
2023-05-22T12:06:21.823Z,3.80
2023-05-22T12:10:20.414Z,4.20
2023-05-22T12:14:21.683Z,7.10
2023-05-22T12:18:18.330Z,5.90
2023-05-22T12:22:19.727Z,8.00
2023-05-22T12:26:19.388Z,4.60
2023-05-22T12:30:20.917Z,4.80
2023-05-22T12:34:18.264Z,3.40
2023-05-22T12:38:19.704Z,6.30
2023-05-22T12:42:18.444Z,5.50
2023-05-22T12:46:20.183Z,4.10
2023-05-22T12:50:22.067Z,3.30
2023-05-22T12:54:17.251Z,4.50
2023-05-22T12:58:18.909Z,5.10
2023-05-22T13:02:14.202Z,7.20
2023-05-22T13:06:16.021Z,6.10
2023-05-22T13:10:14.255Z,6.00
2023-05-22T13:14:13.447Z,6.00
2023-05-22T13:18:11.484Z,4.80
2023-05-22T13:22:12.015Z,5.50
2023-05-22T13:26:09.355Z,5.20
2023-05-22T13:30:08.830Z,4.90
2023-05-22T13:34:07.508Z,4.90
2023-05-22T13:38:12.562Z,4.70
2023-05-22T13:42:10.475Z,4.50
2023-05-22T13:46:11.315Z,3.90
2023-05-22T13:50:07.952Z,3.50
2023-05-22T13:54:05.312Z,3.30
2023-05-22T13:58:04.048Z,3.80
2023-05-22T14:02:02.640Z,8.00
2023-05-22T14:06:01.683Z,3.40
2023-05-22T14:09:58.083Z,3.20
2023-05-22T14:13:59.406Z,6.00
2023-05-22T14:17:55.576Z,5.80
2023-05-22T14:21:54.779Z,4.70
2023-05-22T14:25:50.338Z,7.00
2023-05-22T14:29:50.837Z,4.60
2023-05-22T14:33:45.261Z,5.60
2023-05-22T14:37:44.580Z,4.30
2023-05-22T14:41:39.668Z,12.10
2023-05-22T14:45:38.501Z,7.20
2023-05-22T14:49:33.733Z,8.10
2023-05-22T14:53:33.090Z,4.10
2023-05-22T14:57:28.169Z,4.30
2023-05-22T15:01:26.836Z,6.30
2023-05-22T15:05:21.860Z,3.70
2023-05-22T15:09:21.203Z,4.20
2023-05-22T15:13:16.893Z,4.30
2023-05-22T15:17:15.499Z,6.80
2023-05-22T15:21:10.835Z,5.20
2023-05-22T15:25:09.723Z,3.50
2023-05-22T15:29:05.661Z,4.50
2023-05-22T15:33:04.881Z,4.10
2023-05-22T15:36:59.671Z,7.10
2023-05-22T15:40:58.885Z,4.50
2023-05-22T15:44:54.676Z,6.60
2023-05-22T15:48:53.670Z,6.70
2023-05-22T15:52:48.876Z,5.80
2023-05-22T15:56:48.016Z,16.20
2023-05-22T16:00:42.776Z,65.40
2023-05-22T16:04:41.608Z,36.40
2023-05-22T16:08:36.618Z,19.20
2023-05-22T16:12:36.243Z,14.60
2023-05-22T16:16:31.898Z,10.00
2023-05-22T16:20:30.620Z,23.20
2023-05-22T16:24:26.125Z,29.20
2023-05-22T16:28:25.366Z,20.50
2023-05-22T16:32:20.983Z,17.30
2023-05-22T16:36:19.953Z,15.20
2023-05-22T16:40:15.930Z,7.80
2023-05-22T16:44:15.134Z,9.30
2023-05-22T16:47:05.128Z,8.30
2023-05-22T16:49:53.159Z,10.60
2023-05-22T16:52:41.022Z,11.20
2023-05-22T16:55:29.035Z,50.90
2023-05-22T16:58:17.190Z,36.90
2023-05-22T17:01:05.852Z,15.10
2023-05-22T17:03:54.334Z,12.40
2023-05-22T17:06:45.008Z,8.00
2023-05-22T17:09:33.041Z,10.60
2023-05-22T17:12:20.477Z,4.20
2023-05-22T17:15:09.065Z,5.90
2023-05-22T17:17:57.064Z,5.80
2023-05-22T17:20:48.908Z,7.00
2023-05-22T17:23:36.968Z,6.10
2023-05-22T17:26:25.033Z,5.60
2023-05-22T17:29:12.801Z,4.10
2023-05-22T17:32:01.060Z,3.90
2023-05-22T17:34:49.094Z,3.40
2023-05-22T17:37:37.154Z,6.00
2023-05-22T17:40:40.042Z,4.40
2023-05-22T17:43:34.638Z,4.40
2023-05-22T17:46:22.576Z,6.00
2023-05-22T17:49:10.530Z,2.70
2023-05-22T17:51:58.602Z,4.40
2023-05-22T17:54:46.804Z,4.90
2023-05-22T17:57:35.056Z,6.90
2023-05-22T18:00:23.193Z,8.00
2023-05-22T18:03:11.770Z,6.10
2023-05-22T18:05:59.666Z,5.60
2023-05-22T18:08:47.770Z,5.40
2023-05-22T18:11:35.508Z,6.50
2023-05-22T18:14:23.607Z,5.90
2023-05-22T18:17:11.841Z,6.00
2023-05-22T18:20:00.532Z,7.90
2023-05-22T18:22:48.523Z,5.00
2023-05-22T18:25:36.362Z,6.50
2023-05-22T18:28:26.051Z,4.40
2023-05-22T18:31:13.695Z,4.30
2023-05-22T18:34:01.645Z,4.10
2023-05-22T18:36:50.363Z,5.70
2023-05-22T18:39:38.378Z,4.10
2023-05-22T18:42:26.596Z,6.50
2023-05-22T18:45:14.690Z,5.30
2023-05-22T18:48:02.678Z,9.10
2023-05-22T18:50:51.558Z,8.20
2023-05-22T18:53:40.005Z,6.80
2023-05-22T18:56:28.156Z,9.30
2023-05-22T18:59:16.618Z,10.10
2023-05-22T19:02:04.820Z,8.30
2023-05-22T19:04:52.909Z,7.40
2023-05-22T19:07:41.345Z,6.80
2023-05-22T19:10:29.484Z,6.30
2023-05-22T19:13:17.397Z,8.20
2023-05-22T19:16:05.696Z,6.60
2023-05-22T19:18:53.497Z,10.60
2023-05-22T19:21:42.051Z,9.50
2023-05-22T19:24:30.669Z,9.30
2023-05-22T19:27:18.486Z,10.70
2023-05-22T19:30:06.727Z,9.30
2023-05-22T19:32:57.765Z,8.60
2023-05-22T19:35:46.662Z,9.50
2023-05-22T19:38:35.022Z,11.80
2023-05-22T19:41:23.263Z,9.60
2023-05-22T19:44:11.334Z,8.20
2023-05-22T19:46:59.043Z,7.80
2023-05-22T19:49:46.920Z,7.00
2023-05-22T19:52:34.964Z,10.50
2023-05-22T19:55:22.865Z,8.90
2023-05-22T19:58:11.126Z,7.90
2023-05-22T20:00:59.586Z,8.20
2023-05-22T20:03:47.605Z,8.00
2023-05-22T20:06:36.615Z,8.40
2023-05-22T20:09:26.380Z,9.30
2023-05-22T20:12:14.518Z,8.20
2023-05-22T20:15:03.410Z,7.80
2023-05-22T20:17:53.024Z,8.40
2023-05-22T20:20:41.093Z,5.80
2023-05-22T20:23:29.346Z,7.30
2023-05-22T20:26:17.396Z,6.80
2023-05-22T20:29:05.336Z,7.20
2023-05-22T20:31:54.298Z,7.70
2023-05-22T20:34:42.474Z,7.40
2023-05-22T20:37:34.395Z,9.20
2023-05-22T20:40:25.874Z,10.00
2023-05-22T20:43:14.088Z,8.30
2023-05-22T20:46:02.723Z,8.70
2023-05-22T20:48:53.679Z,10.50
2023-05-22T20:51:42.749Z,8.10
2023-05-22T20:54:33.738Z,10.60
2023-05-22T20:57:21.949Z,7.20
2023-05-22T21:00:10.640Z,9.60
2023-05-22T21:03:00.818Z,11.10
2023-05-22T21:05:48.868Z,7.00
2023-05-22T21:08:37.604Z,9.30
2023-05-22T21:11:26.213Z,7.00
2023-05-22T21:14:14.344Z,8.60
2023-05-22T21:17:02.133Z,8.30
2023-05-22T21:19:50.155Z,7.10
2023-05-22T21:22:38.150Z,7.80
2023-05-22T21:25:26.270Z,7.90
2023-05-22T21:28:14.321Z,7.80
2023-05-22T21:31:02.145Z,9.90
2023-05-22T21:33:50.174Z,10.00
2023-05-22T21:36:38.306Z,8.20
2023-05-22T21:39:26.038Z,7.10
2023-05-22T21:42:14.793Z,8.70
2023-05-22T21:45:02.954Z,6.30
2023-05-22T21:47:50.915Z,7.10
2023-05-22T21:50:39.035Z,8.50
2023-05-22T21:53:26.777Z,7.30
2023-05-22T21:56:14.635Z,9.70
2023-05-22T21:59:02.988Z,8.10
2023-05-22T22:01:50.811Z,8.20
2023-05-22T22:04:39.209Z,7.80
2023-05-22T22:07:26.944Z,8.80
2023-05-22T22:10:14.978Z,9.50
2023-05-22T22:13:03.263Z,10.00
2023-05-22T22:15:59.350Z,9.40
2023-05-22T22:18:50.821Z,8.00
2023-05-22T22:21:38.634Z,8.50
2023-05-22T22:24:29.106Z,8.80
2023-05-22T22:27:17.153Z,9.00
2023-05-22T22:30:05.896Z,10.10
2023-05-22T22:32:54.324Z,12.90
2023-05-22T22:35:42.687Z,9.90
2023-05-22T22:38:32.574Z,7.60
2023-05-22T22:41:20.412Z,7.90
2023-05-22T22:44:08.225Z,10.30
2023-05-22T22:46:56.605Z,8.30
2023-05-22T22:49:44.461Z,9.50
2023-05-22T22:52:32.693Z,10.50
2023-05-22T22:55:20.790Z,10.50
2023-05-22T22:58:09.055Z,9.10
2023-05-22T23:00:57.155Z,8.60
2023-05-22T23:03:44.988Z,10.10
2023-05-22T23:06:34.150Z,9.60
2023-05-22T23:09:21.859Z,9.80
2023-05-22T23:12:09.927Z,9.80
2023-05-22T23:14:57.866Z,10.20
2023-05-22T23:17:46.156Z,9.70
2023-05-22T23:20:34.145Z,14.30
2023-05-22T23:23:23.639Z,13.10
2023-05-22T23:26:11.507Z,12.70
2023-05-22T23:28:59.746Z,13.90
2023-05-22T23:31:47.777Z,18.20
2023-05-22T23:34:35.897Z,15.50
2023-05-22T23:37:23.622Z,14.10
2023-05-22T23:40:12.191Z,15.30
2023-05-22T23:42:59.958Z,15.30
2023-05-22T23:45:48.321Z,9.00
2023-05-22T23:48:36.282Z,10.90
2023-05-22T23:51:24.043Z,13.10
2023-05-22T23:54:12.616Z,13.80
2023-05-22T23:57:00.452Z,17.00
2023-05-22T23:59:48.166Z,13.40
